createdAt,value
2022-10-22T00:00:06.302Z,42.90
2022-10-22T00:02:33.088Z,39.00
2022-10-22T00:04:59.924Z,36.30
2022-10-22T00:07:26.755Z,39.30
2022-10-22T00:09:53.839Z,38.90
2022-10-22T00:12:20.646Z,39.20
2022-10-22T00:14:48.510Z,39.20
2022-10-22T00:17:15.633Z,32.90
2022-10-22T00:19:42.391Z,36.50
2022-10-22T00:22:10.250Z,31.60
2022-10-22T00:24:38.772Z,35.90
2022-10-22T00:27:07.059Z,39.50
2022-10-22T00:29:33.800Z,28.50
2022-10-22T00:32:01.190Z,34.10
2022-10-22T00:34:27.904Z,29.70
2022-10-22T00:36:54.636Z,27.00
2022-10-22T00:39:24.416Z,32.40
2022-10-22T00:41:53.517Z,27.20
2022-10-22T00:44:58.281Z,30.30
2022-10-22T00:47:26.389Z,35.00
2022-10-22T00:49:55.309Z,30.90
2022-10-22T00:52:23.005Z,29.20
2022-10-22T00:54:51.688Z,35.70
2022-10-22T00:57:20.972Z,31.50
2022-10-22T00:59:48.789Z,33.10
2022-10-22T01:02:16.346Z,34.90
2022-10-22T01:04:43.375Z,34.70
2022-10-22T01:07:22.940Z,30.60
2022-10-22T01:10:08.103Z,31.20
2022-10-22T01:12:53.628Z,30.70
2022-10-22T01:15:38.824Z,32.00
2022-10-22T01:18:20.438Z,27.60
2022-10-22T01:20:55.612Z,32.30
2022-10-22T01:23:50.458Z,27.30
2022-10-22T01:28:50.983Z,27.60
2022-10-22T01:31:20.497Z,22.70
2022-10-22T01:33:50.037Z,27.20
2022-10-22T01:36:18.346Z,27.60
2022-10-22T01:38:47.090Z,26.60
2022-10-22T01:41:14.560Z,25.40
2022-10-22T01:43:41.308Z,22.50
2022-10-22T01:46:11.631Z,22.00
2022-10-22T01:49:17.661Z,26.10
2022-10-22T01:52:35.575Z,25.50
2022-10-22T01:55:14.514Z,24.10
2022-10-22T01:57:55.302Z,24.60
2022-10-22T02:00:22.251Z,23.70
2022-10-22T02:03:04.421Z,31.60
2022-10-22T02:05:37.266Z,22.80
2022-10-22T02:08:11.193Z,25.60
2022-10-22T02:10:41.466Z,24.40
2022-10-22T02:13:16.787Z,25.70
2022-10-22T02:15:46.447Z,25.70
2022-10-22T02:18:14.589Z,23.00
2022-10-22T02:20:42.593Z,25.50
2022-10-22T02:23:10.625Z,29.20
2022-10-22T02:25:41.951Z,29.10
2022-10-22T02:28:23.977Z,30.40
2022-10-22T02:30:57.811Z,33.10
2022-10-22T02:33:30.412Z,28.50
2022-10-22T02:35:59.140Z,38.40
2022-10-22T02:38:27.476Z,38.00
2022-10-22T02:40:54.293Z,28.30
2022-10-22T02:43:20.927Z,29.70
2022-10-22T02:45:47.602Z,25.90
2022-10-22T02:48:14.457Z,29.30
2022-10-22T02:50:41.337Z,26.00
2022-10-22T02:53:08.124Z,29.90
2022-10-22T02:55:34.796Z,30.90
2022-10-22T02:58:01.627Z,24.10
2022-10-22T03:00:28.435Z,27.30
2022-10-22T03:02:55.217Z,24.80
2022-10-22T03:05:22.007Z,30.90
2022-10-22T03:07:48.674Z,25.90
2022-10-22T03:10:15.517Z,29.60
2022-10-22T03:12:42.261Z,21.20
2022-10-22T03:15:09.301Z,23.90
2022-10-22T03:17:36.171Z,24.90
2022-10-22T03:20:02.957Z,25.70
2022-10-22T03:22:33.072Z,26.50
2022-10-22T03:25:08.152Z,23.40
2022-10-22T03:27:36.892Z,23.50
2022-10-22T03:30:04.574Z,26.00
2022-10-22T03:32:31.356Z,24.40
2022-10-22T03:37:30.440Z,23.30
2022-10-22T03:39:57.779Z,20.20
2022-10-22T03:42:24.852Z,20.30
2022-10-22T03:44:51.625Z,14.70
2022-10-22T03:47:18.476Z,19.50
2022-10-22T03:49:45.217Z,17.00
2022-10-22T03:52:14.412Z,18.30
2022-10-22T03:54:42.682Z,21.70
2022-10-22T03:57:10.332Z,19.00
2022-10-22T03:59:43.180Z,26.60
2022-10-22T04:02:11.992Z,25.80
2022-10-22T04:04:39.328Z,26.30
2022-10-22T04:07:07.311Z,21.70
2022-10-22T04:09:34.820Z,25.00
2022-10-22T04:12:01.898Z,17.70
2022-10-22T04:14:28.637Z,19.30
2022-10-22T04:16:55.595Z,18.20
2022-10-22T04:19:22.467Z,17.70
2022-10-22T04:21:49.367Z,19.70
2022-10-22T04:24:16.103Z,19.50
2022-10-22T04:26:43.194Z,20.70
2022-10-22T04:29:13.472Z,20.60
2022-10-22T04:31:42.845Z,21.00
2022-10-22T04:34:09.607Z,20.30
2022-10-22T04:36:36.408Z,19.70
2022-10-22T04:39:04.752Z,21.50
2022-10-22T04:41:37.456Z,22.80
2022-10-22T04:44:05.458Z,24.10
2022-10-22T04:46:34.663Z,21.80
2022-10-22T04:49:03.612Z,24.20
2022-10-22T04:51:30.684Z,24.10
2022-10-22T04:53:57.547Z,28.20
2022-10-22T04:56:30.023Z,26.00
2022-10-22T04:58:59.775Z,25.90
2022-10-22T05:01:32.848Z,22.10
2022-10-22T05:04:02.536Z,19.40
2022-10-22T05:06:31.820Z,27.80
2022-10-22T05:09:02.271Z,23.30
2022-10-22T05:11:37.905Z,26.80
2022-10-22T05:14:06.637Z,23.20
2022-10-22T05:16:34.395Z,22.90
2022-10-22T05:19:02.840Z,22.50
2022-10-22T05:21:30.008Z,25.70
2022-10-22T05:23:59.843Z,22.70
2022-10-22T05:26:28.353Z,27.60
2022-10-22T05:28:55.206Z,31.40
2022-10-22T05:31:21.996Z,33.10
2022-10-22T05:33:49.018Z,29.10
2022-10-22T05:36:20.259Z,27.40
2022-10-22T05:38:48.016Z,24.30
2022-10-22T05:41:18.154Z,25.90
2022-10-22T05:43:45.085Z,26.30
2022-10-22T05:46:18.620Z,26.50
2022-10-22T05:49:00.129Z,31.30
2022-10-22T05:51:28.958Z,31.70
2022-10-22T05:53:58.404Z,31.80
2022-10-22T05:56:26.354Z,27.30
2022-10-22T05:58:53.746Z,34.20
2022-10-22T06:01:28.951Z,27.80
2022-10-22T06:03:57.411Z,35.20
2022-10-22T06:06:40.752Z,33.60
2022-10-22T06:09:13.454Z,34.00
2022-10-22T06:11:41.715Z,43.10
2022-10-22T06:14:09.920Z,25.70
2022-10-22T06:16:36.663Z,24.20
2022-10-22T06:19:03.906Z,29.10
2022-10-22T06:21:32.030Z,32.30
2022-10-22T06:24:00.690Z,30.40
2022-10-22T06:26:27.911Z,28.40
2022-10-22T06:28:56.393Z,32.60
2022-10-22T06:31:24.492Z,26.50
2022-10-22T06:33:51.249Z,29.30
2022-10-22T06:36:23.408Z,27.20
2022-10-22T06:38:55.303Z,25.90
2022-10-22T06:41:25.797Z,34.00
2022-10-22T06:43:57.906Z,28.90
2022-10-22T06:46:26.192Z,26.30
2022-10-22T06:48:59.201Z,29.70
2022-10-22T06:51:26.490Z,25.30
2022-10-22T06:53:54.478Z,24.90
2022-10-22T06:56:24.249Z,22.50
2022-10-22T06:58:53.205Z,23.60
2022-10-22T07:01:22.432Z,23.80
2022-10-22T07:03:52.132Z,28.40
2022-10-22T07:06:19.499Z,31.70
2022-10-22T07:08:46.483Z,32.30
2022-10-22T07:11:17.924Z,31.30
2022-10-22T07:13:45.494Z,32.10
2022-10-22T07:16:13.045Z,23.00
2022-10-22T07:18:41.094Z,29.20
2022-10-22T07:21:09.393Z,24.80
2022-10-22T07:23:36.173Z,25.40
2022-10-22T07:26:04.293Z,31.40
2022-10-22T07:28:32.765Z,29.30
2022-10-22T07:31:00.908Z,24.00
2022-10-22T07:33:27.747Z,26.10
2022-10-22T07:36:01.305Z,30.90
2022-10-22T07:38:29.315Z,27.50
2022-10-22T07:40:56.350Z,25.60
2022-10-22T07:43:23.307Z,25.90
2022-10-22T07:45:50.307Z,24.70
2022-10-22T07:48:17.467Z,24.70
2022-10-22T07:50:50.286Z,30.40
2022-10-22T07:53:17.566Z,23.10
2022-10-22T07:55:44.264Z,26.90
2022-10-22T07:58:10.968Z,30.10
2022-10-22T08:00:37.902Z,26.30
2022-10-22T08:03:04.775Z,29.20
2022-10-22T08:05:31.570Z,24.30
2022-10-22T08:07:58.334Z,24.00
2022-10-22T08:10:25.099Z,23.40
2022-10-22T08:12:51.829Z,23.40
2022-10-22T08:15:18.664Z,23.60
2022-10-22T08:17:45.393Z,28.40
2022-10-22T08:20:12.267Z,25.70
2022-10-22T08:22:38.995Z,29.70
2022-10-22T08:25:06.391Z,24.20
2022-10-22T08:27:33.100Z,21.50
2022-10-22T08:29:59.877Z,27.90
2022-10-22T08:34:54.346Z,27.40
2022-10-22T08:37:21.128Z,23.60
2022-10-22T08:39:47.990Z,28.70
2022-10-22T08:42:34.399Z,25.00
2022-10-22T08:45:23.138Z,29.90
2022-10-22T08:48:18.091Z,21.60
2022-10-22T08:50:51.804Z,23.30
2022-10-22T08:53:40.131Z,23.90
2022-10-22T08:56:07.046Z,27.00
2022-10-22T08:59:04.308Z,26.40
2022-10-22T09:01:41.850Z,24.80
2022-10-22T09:04:19.738Z,23.40
2022-10-22T09:06:49.587Z,21.70
2022-10-22T09:13:18.112Z,21.40
2022-10-22T09:15:49.556Z,21.00
2022-10-22T09:18:31.159Z,24.80
2022-10-22T09:21:21.157Z,23.90
2022-10-22T09:24:12.290Z,23.60
2022-10-22T09:26:40.891Z,34.90
2022-10-22T09:29:17.635Z,23.40
2022-10-22T09:31:44.450Z,24.80
2022-10-22T09:34:15.129Z,25.60
2022-10-22T09:36:42.213Z,23.70
2022-10-22T09:39:32.033Z,26.00
2022-10-22T09:41:59.234Z,17.70
2022-10-22T09:44:25.975Z,19.00
2022-10-22T09:46:52.772Z,25.90
2022-10-22T09:49:23.450Z,20.50
2022-10-22T09:51:56.517Z,17.90
2022-10-22T09:54:46.553Z,21.30
2022-10-22T09:57:21.672Z,19.10
2022-10-22T09:59:54.214Z,19.40
2022-10-22T10:02:39.230Z,20.00
2022-10-22T10:05:07.292Z,14.90
2022-10-22T10:07:36.749Z,16.30
2022-10-22T10:10:19.455Z,18.00
2022-10-22T10:12:58.879Z,13.40
2022-10-22T10:15:42.887Z,14.00
2022-10-22T10:18:21.863Z,14.70
2022-10-22T10:20:58.603Z,14.30
2022-10-22T10:23:42.044Z,16.50
2022-10-22T10:26:24.248Z,16.60
2022-10-22T10:29:12.936Z,14.60
2022-10-22T10:31:53.743Z,15.70
2022-10-22T10:34:23.446Z,14.00
2022-10-22T10:36:59.278Z,12.10
2022-10-22T10:39:42.781Z,15.80
2022-10-22T10:42:15.650Z,12.50
2022-10-22T10:45:07.370Z,12.30
2022-10-22T10:47:42.305Z,12.20
2022-10-22T10:50:33.770Z,19.20
2022-10-22T10:53:03.562Z,13.30
2022-10-22T10:55:36.179Z,16.90
2022-10-22T10:58:54.555Z,13.80
2022-10-22T11:01:27.792Z,18.90
2022-10-22T11:04:21.539Z,15.10
2022-10-22T11:06:51.121Z,14.70
2022-10-22T11:09:27.214Z,13.70
2022-10-22T11:12:02.491Z,12.40
2022-10-22T11:15:00.359Z,9.40
2022-10-22T11:17:33.599Z,11.60
2022-10-22T11:20:18.757Z,10.40
2022-10-22T11:23:16.762Z,17.80
2022-10-22T11:25:46.870Z,10.40
2022-10-22T11:30:57.452Z,10.50
2022-10-22T11:33:30.380Z,18.20
2022-10-22T11:35:59.880Z,9.40
2022-10-22T11:38:28.460Z,11.50
2022-10-22T11:41:16.205Z,13.60
2022-10-22T11:44:09.878Z,12.00
2022-10-22T11:46:55.090Z,16.20
2022-10-22T11:49:25.751Z,9.50
2022-10-22T11:52:05.339Z,13.80
2022-10-22T11:54:35.099Z,11.60
2022-10-22T11:57:17.128Z,9.70
2022-10-22T11:59:46.866Z,9.30
2022-10-22T12:02:28.915Z,11.00
2022-10-22T12:05:16.116Z,10.80
2022-10-22T12:07:55.136Z,10.00
2022-10-22T12:10:27.295Z,10.80
2022-10-22T12:13:02.424Z,9.30
2022-10-22T12:15:29.711Z,13.10
2022-10-22T12:18:07.062Z,11.60
2022-10-22T12:20:33.846Z,10.80
2022-10-22T12:23:00.911Z,10.80
2022-10-22T12:25:35.693Z,13.40
2022-10-22T12:28:02.880Z,10.60
2022-10-22T12:30:37.116Z,11.00
2022-10-22T12:33:07.267Z,14.00
2022-10-22T12:35:42.574Z,11.40
2022-10-22T12:38:15.700Z,15.40
2022-10-22T12:40:46.018Z,13.80
2022-10-22T12:43:24.094Z,11.10
2022-10-22T12:45:51.467Z,12.00
2022-10-22T12:48:20.290Z,12.70
2022-10-22T12:50:53.345Z,12.20
2022-10-22T12:53:23.255Z,11.70
2022-10-22T12:55:55.687Z,13.50
2022-10-22T12:58:28.619Z,11.70
2022-10-22T13:00:58.648Z,14.60
2022-10-22T13:03:29.309Z,12.50
2022-10-22T13:09:00.659Z,9.90
2022-10-22T13:11:41.284Z,13.70
2022-10-22T13:14:21.486Z,14.70
2022-10-22T13:17:10.083Z,8.80
2022-10-22T13:20:05.630Z,9.40
2022-10-22T13:22:40.892Z,15.00
2022-10-22T13:25:13.778Z,13.20
2022-10-22T13:27:45.606Z,50.60
2022-10-22T13:30:21.156Z,24.30
2022-10-22T13:32:57.070Z,14.40
2022-10-22T13:35:27.765Z,12.10
2022-10-22T13:37:54.560Z,13.30
2022-10-22T13:40:21.895Z,9.80
2022-10-22T13:42:48.833Z,13.60
2022-10-22T13:45:16.509Z,40.70
2022-10-22T13:47:48.959Z,73.90
2022-10-22T13:50:18.802Z,63.90
2022-10-22T13:52:55.687Z,124.80
2022-10-22T13:55:25.721Z,95.40
2022-10-22T13:58:04.209Z,37.50
2022-10-22T14:00:31.493Z,20.20
2022-10-22T14:03:00.050Z,14.00
2022-10-22T14:05:27.978Z,17.10
2022-10-22T14:07:54.958Z,19.50
2022-10-22T14:10:24.639Z,21.90
2022-10-22T14:12:53.807Z,16.80
2022-10-22T14:15:27.950Z,15.30
2022-10-22T14:18:00.224Z,17.80
2022-10-22T14:20:29.956Z,23.60
2022-10-22T14:22:57.143Z,21.50
2022-10-22T14:25:26.068Z,16.20
2022-10-22T14:27:52.922Z,15.20
2022-10-22T16:10:35.122Z,47.70
2022-10-22T16:13:01.804Z,42.20
2022-10-22T16:15:28.510Z,52.60
2022-10-22T16:17:55.452Z,57.10
2022-10-22T16:20:22.151Z,60.70
2022-10-22T16:22:50.627Z,64.50
2022-10-22T16:25:18.143Z,92.70
2022-10-22T16:27:45.217Z,93.70
2022-10-22T16:30:12.596Z,106.90
2022-10-22T16:32:39.527Z,110.70
2022-10-22T16:35:08.619Z,106.00
2022-10-22T16:37:35.609Z,106.90
2022-10-22T16:40:05.867Z,113.50
2022-10-22T16:42:35.121Z,97.60
2022-10-22T16:45:02.326Z,104.90
2022-10-22T16:47:30.277Z,110.60
2022-10-22T16:49:59.735Z,100.20
2022-10-22T16:52:26.938Z,107.00
2022-10-22T16:54:53.755Z,100.40
2022-10-22T16:57:20.536Z,106.90
2022-10-22T16:59:49.859Z,104.90
2022-10-22T17:02:16.815Z,100.60
2022-10-22T17:04:43.765Z,104.60
2022-10-22T17:07:11.308Z,101.20
2022-10-22T17:09:38.518Z,90.50
2022-10-22T17:12:05.535Z,90.10
2022-10-22T17:14:33.068Z,91.80
2022-10-22T17:17:00.165Z,82.20
2022-10-22T17:19:27.426Z,93.80
2022-10-22T17:21:54.855Z,89.20
2022-10-22T17:24:22.116Z,92.90
2022-10-22T17:26:50.503Z,92.10
2022-10-22T17:29:20.882Z,89.00
2022-10-22T17:31:48.699Z,85.20
2022-10-22T17:34:21.886Z,87.00
2022-10-22T17:36:48.788Z,75.20
2022-10-22T17:46:50.360Z,76.00
2022-10-22T20:11:47.087Z,43.30
2022-10-22T20:14:14.416Z,49.00
2022-10-22T20:16:42.274Z,46.00
2022-10-22T20:19:09.237Z,45.40
2022-10-22T20:21:36.015Z,46.60
2022-10-22T20:24:02.761Z,43.10
2022-10-22T20:26:29.747Z,43.00
2022-10-22T20:28:58.130Z,43.60
2022-10-22T20:31:27.966Z,40.50
2022-10-22T20:33:58.234Z,43.30
2022-10-22T20:36:26.784Z,43.50
2022-10-22T20:39:00.410Z,39.70
2022-10-22T20:45:08.980Z,40.00
2022-10-22T20:47:50.812Z,40.80
2022-10-22T21:09:14.533Z,37.30
2022-10-22T21:11:42.780Z,44.50
2022-10-22T21:14:10.899Z,42.90
2022-10-22T21:16:41.916Z,40.70
2022-10-22T21:19:08.917Z,45.30
2022-10-22T21:21:35.671Z,47.40
2022-10-22T21:24:02.386Z,47.80
2022-10-22T21:26:29.066Z,39.50
2022-10-22T21:28:55.760Z,45.80
2022-10-22T21:31:24.420Z,40.00
2022-10-22T21:33:51.456Z,37.70
2022-10-22T21:36:22.720Z,43.20
2022-10-22T21:38:51.778Z,43.00
2022-10-22T21:41:20.207Z,39.70
2022-10-22T21:43:46.975Z,39.50
2022-10-22T21:46:17.215Z,42.20
2022-10-22T21:48:44.713Z,38.00
2022-10-22T21:51:15.928Z,37.90
2022-10-22T21:53:43.341Z,42.40
2022-10-22T21:56:19.101Z,38.60
2022-10-22T21:58:45.891Z,39.80
2022-10-22T22:01:14.723Z,39.90
2022-10-22T22:03:48.351Z,43.60
2022-10-22T22:06:20.405Z,38.90
2022-10-22T22:08:49.358Z,39.80
2022-10-22T22:11:18.839Z,41.80
2022-10-22T22:13:45.762Z,36.50
2022-10-22T22:16:15.861Z,45.80
2022-10-22T22:18:42.909Z,44.20
2022-10-22T22:21:12.858Z,39.40
2022-10-22T22:23:42.132Z,41.60
2022-10-22T22:26:10.153Z,35.50
2022-10-22T22:28:37.995Z,33.00
2022-10-22T22:31:17.146Z,33.90
2022-10-22T22:33:44.303Z,31.40
2022-10-22T22:36:11.733Z,33.60
2022-10-22T22:38:39.380Z,35.20
2022-10-22T22:41:06.993Z,32.80
2022-10-22T22:43:34.657Z,28.00
2022-10-22T22:46:04.153Z,30.60
2022-10-22T22:48:30.922Z,29.80
2022-10-22T22:51:00.143Z,28.50
2022-10-22T22:53:28.413Z,29.90
2022-10-22T22:56:14.182Z,27.40
2022-10-22T22:58:42.455Z,33.50
2022-10-22T23:01:17.501Z,34.80
2022-10-22T23:03:46.563Z,28.20
2022-10-22T23:06:14.285Z,36.20
2022-10-22T23:08:42.652Z,25.20
2022-10-22T23:11:13.174Z,26.20
2022-10-22T23:13:42.110Z,29.30
2022-10-22T23:16:14.659Z,30.90
2022-10-22T23:18:41.510Z,31.50
2022-10-22T23:21:14.072Z,25.30
2022-10-22T23:23:46.187Z,29.70
2022-10-22T23:26:14.642Z,30.40
2022-10-22T23:28:41.599Z,28.40
2022-10-22T23:31:10.917Z,32.00
2022-10-22T23:33:37.644Z,31.20
2022-10-22T23:36:07.208Z,27.90
2022-10-22T23:38:35.218Z,31.00
2022-10-22T23:41:02.114Z,27.30
2022-10-22T23:43:29.750Z,25.80
2022-10-22T23:45:57.317Z,32.30
2022-10-22T23:48:24.349Z,26.30
2022-10-22T23:50:51.025Z,30.50
2022-10-22T23:53:17.827Z,32.80
2022-10-22T23:55:45.123Z,28.20
2022-10-22T23:58:12.294Z,25.70
